sensor_id;sensor_type;location;lat;lon;timestamp;temperature;humidity
10433;DHT22;5263;48.680;9.004;2022-08-01T00:02:13;20.10;91.00
10433;DHT22;5263;48.680;9.004;2022-08-01T00:04:39;20.30;90.60
10433;DHT22;5263;48.680;9.004;2022-08-01T00:07:04;20.30;90.80
10433;DHT22;5263;48.680;9.004;2022-08-01T00:09:30;20.10;91.30
10433;DHT22;5263;48.680;9.004;2022-08-01T00:11:56;20.00;92.00
10433;DHT22;5263;48.680;9.004;2022-08-01T00:14:22;19.60;92.10
10433;DHT22;5263;48.680;9.004;2022-08-01T00:16:47;19.30;92.70
10433;DHT22;5263;48.680;9.004;2022-08-01T00:19:13;19.10;93.60
10433;DHT22;5263;48.680;9.004;2022-08-01T00:21:39;19.10;94.30
10433;DHT22;5263;48.680;9.004;2022-08-01T00:24:04;18.90;94.40
10433;DHT22;5263;48.680;9.004;2022-08-01T00:26:30;19.00;95.50
10433;DHT22;5263;48.680;9.004;2022-08-01T00:28:56;18.80;96.30
10433;DHT22;5263;48.680;9.004;2022-08-01T00:31:21;18.90;95.80
10433;DHT22;5263;48.680;9.004;2022-08-01T00:33:47;18.80;96.30
10433;DHT22;5263;48.680;9.004;2022-08-01T00:36:13;18.80;97.00
10433;DHT22;5263;48.680;9.004;2022-08-01T00:38:39;18.70;97.60
10433;DHT22;5263;48.680;9.004;2022-08-01T00:41:04;18.50;97.60
10433;DHT22;5263;48.680;9.004;2022-08-01T00:43:30;18.40;98.10
10433;DHT22;5263;48.680;9.004;2022-08-01T00:45:56;18.30;98.70
10433;DHT22;5263;48.680;9.004;2022-08-01T00:48:21;18.20;99.50
10433;DHT22;5263;48.680;9.004;2022-08-01T00:50:47;18.30;99.90
10433;DHT22;5263;48.680;9.004;2022-08-01T00:53:13;18.30;99.90
10433;DHT22;5263;48.680;9.004;2022-08-01T00:55:39;18.20;99.90
10433;DHT22;5263;48.680;9.004;2022-08-01T00:58:05;18.20;99.90
10433;DHT22;5263;48.680;9.004;2022-08-01T01:00:31;18.10;99.90
10433;DHT22;5263;48.680;9.004;2022-08-01T01:02:57;18.00;99.90
10433;DHT22;5263;48.680;9.004;2022-08-01T01:05:23;18.00;99.90
10433;DHT22;5263;48.680;9.004;2022-08-01T01:08:03;18.00;99.90
10433;DHT22;5263;48.680;9.004;2022-08-01T01:10:54;18.20;99.90
10433;DHT22;5263;48.680;9.004;2022-08-01T01:15:59;18.20;99.90
10433;DHT22;5263;48.680;9.004;2022-08-01T01:18:38;18.30;99.90
10433;DHT22;5263;48.680;9.004;2022-08-01T01:26:59;18.50;99.90
10433;DHT22;5263;48.680;9.004;2022-08-01T01:29:38;18.60;99.90
10433;DHT22;5263;48.680;9.004;2022-08-01T01:32:22;18.70;99.90
10433;DHT22;5263;48.680;9.004;2022-08-01T01:34:54;18.80;99.90
10433;DHT22;5263;48.680;9.004;2022-08-01T01:37:22;19.00;99.90
10433;DHT22;5263;48.680;9.004;2022-08-01T01:39:50;18.90;99.90
10433;DHT22;5263;48.680;9.004;2022-08-01T01:42:17;19.00;99.90
10433;DHT22;5263;48.680;9.004;2022-08-01T01:44:45;19.10;99.90
10433;DHT22;5263;48.680;9.004;2022-08-01T01:47:15;19.10;99.90
10433;DHT22;5263;48.680;9.004;2022-08-01T01:49:44;19.20;99.90
10433;DHT22;5263;48.680;9.004;2022-08-01T01:52:13;19.20;99.90
10433;DHT22;5263;48.680;9.004;2022-08-01T01:54:45;19.20;99.90
10433;DHT22;5263;48.680;9.004;2022-08-01T01:57:12;19.30;99.90
10433;DHT22;5263;48.680;9.004;2022-08-01T01:59:39;19.20;99.90
10433;DHT22;5263;48.680;9.004;2022-08-01T02:02:06;19.20;99.90
10433;DHT22;5263;48.680;9.004;2022-08-01T02:04:35;19.20;99.90
10433;DHT22;5263;48.680;9.004;2022-08-01T02:07:01;19.20;99.90
10433;DHT22;5263;48.680;9.004;2022-08-01T02:09:28;19.10;99.90
10433;DHT22;5263;48.680;9.004;2022-08-01T02:11:57;19.10;99.90
10433;DHT22;5263;48.680;9.004;2022-08-01T02:14:24;19.10;99.90
10433;DHT22;5263;48.680;9.004;2022-08-01T02:16:52;19.20;99.90
10433;DHT22;5263;48.680;9.004;2022-08-01T02:19:20;19.20;99.90
10433;DHT22;5263;48.680;9.004;2022-08-01T02:21:55;19.10;99.90
10433;DHT22;5263;48.680;9.004;2022-08-01T02:24:43;19.00;99.90
10433;DHT22;5263;48.680;9.004;2022-08-01T02:27:14;18.80;99.90
10433;DHT22;5263;48.680;9.004;2022-08-01T02:30:06;18.90;99.90
10433;DHT22;5263;48.680;9.004;2022-08-01T02:32:38;18.80;99.90
10433;DHT22;5263;48.680;9.004;2022-08-01T02:35:07;18.80;99.90
10433;DHT22;5263;48.680;9.004;2022-08-01T02:37:36;19.00;99.90
10433;DHT22;5263;48.680;9.004;2022-08-01T02:40:04;18.90;99.90
10433;DHT22;5263;48.680;9.004;2022-08-01T02:42:32;18.90;99.90
10433;DHT22;5263;48.680;9.004;2022-08-01T02:45:02;19.00;99.90
10433;DHT22;5263;48.680;9.004;2022-08-01T02:47:29;19.00;99.90
10433;DHT22;5263;48.680;9.004;2022-08-01T02:49:56;19.10;99.90
10433;DHT22;5263;48.680;9.004;2022-08-01T02:52:24;19.20;99.90
10433;DHT22;5263;48.680;9.004;2022-08-01T02:54:54;19.30;99.90
10433;DHT22;5263;48.680;9.004;2022-08-01T02:57:20;19.30;99.90
10433;DHT22;5263;48.680;9.004;2022-08-01T02:59:48;19.30;99.90
10433;DHT22;5263;48.680;9.004;2022-08-01T03:02:16;19.30;99.90
10433;DHT22;5263;48.680;9.004;2022-08-01T03:04:43;19.20;99.90
10433;DHT22;5263;48.680;9.004;2022-08-01T03:07:10;19.20;99.90
10433;DHT22;5263;48.680;9.004;2022-08-01T03:09:41;19.10;99.90
10433;DHT22;5263;48.680;9.004;2022-08-01T03:12:11;19.10;99.90
10433;DHT22;5263;48.680;9.004;2022-08-01T03:14:40;19.20;99.90
10433;DHT22;5263;48.680;9.004;2022-08-01T03:17:08;19.20;99.90
10433;DHT22;5263;48.680;9.004;2022-08-01T03:19:35;19.10;99.90
10433;DHT22;5263;48.680;9.004;2022-08-01T03:22:06;19.10;99.90
10433;DHT22;5263;48.680;9.004;2022-08-01T03:24:33;19.10;99.90
10433;DHT22;5263;48.680;9.004;2022-08-01T03:27:00;19.10;99.90
10433;DHT22;5263;48.680;9.004;2022-08-01T03:29:28;18.90;99.90
10433;DHT22;5263;48.680;9.004;2022-08-01T03:31:55;18.80;99.90
10433;DHT22;5263;48.680;9.004;2022-08-01T03:34:21;18.80;99.90
10433;DHT22;5263;48.680;9.004;2022-08-01T03:36:48;18.90;99.90
10433;DHT22;5263;48.680;9.004;2022-08-01T03:39:16;18.70;99.90
10433;DHT22;5263;48.680;9.004;2022-08-01T03:41:50;18.50;99.90
10433;DHT22;5263;48.680;9.004;2022-08-01T03:44:20;18.70;99.90
10433;DHT22;5263;48.680;9.004;2022-08-01T03:46:52;18.70;99.90
10433;DHT22;5263;48.680;9.004;2022-08-01T03:49:42;18.50;99.90
10433;DHT22;5263;48.680;9.004;2022-08-01T03:52:09;18.50;99.90
10433;DHT22;5263;48.680;9.004;2022-08-01T03:54:40;18.50;99.90
10433;DHT22;5263;48.680;9.004;2022-08-01T03:57:06;18.40;99.90
10433;DHT22;5263;48.680;9.004;2022-08-01T03:59:34;18.30;99.90
10433;DHT22;5263;48.680;9.004;2022-08-01T04:02:02;18.00;99.90
10433;DHT22;5263;48.680;9.004;2022-08-01T04:04:28;18.00;99.90
10433;DHT22;5263;48.680;9.004;2022-08-01T04:06:55;18.30;99.90
10433;DHT22;5263;48.680;9.004;2022-08-01T04:09:21;18.20;99.90
10433;DHT22;5263;48.680;9.004;2022-08-01T04:11:47;18.30;99.90
10433;DHT22;5263;48.680;9.004;2022-08-01T04:14:14;18.50;99.90
10433;DHT22;5263;48.680;9.004;2022-08-01T04:16:39;18.60;99.90
10433;DHT22;5263;48.680;9.004;2022-08-01T04:19:05;18.40;99.90
10433;DHT22;5263;48.680;9.004;2022-08-01T04:21:35;18.30;99.90
10433;DHT22;5263;48.680;9.004;2022-08-01T04:24:07;18.30;99.90
10433;DHT22;5263;48.680;9.004;2022-08-01T04:26:36;18.40;99.90
10433;DHT22;5263;48.680;9.004;2022-08-01T04:29:04;18.50;99.90
10433;DHT22;5263;48.680;9.004;2022-08-01T04:31:31;18.50;99.90
10433;DHT22;5263;48.680;9.004;2022-08-01T04:33:59;18.40;99.90
10433;DHT22;5263;48.680;9.004;2022-08-01T04:36:28;18.30;99.90
10433;DHT22;5263;48.680;9.004;2022-08-01T04:38:59;18.30;99.90
10433;DHT22;5263;48.680;9.004;2022-08-01T04:41:26;18.20;99.90
10433;DHT22;5263;48.680;9.004;2022-08-01T04:43:52;18.20;99.90
10433;DHT22;5263;48.680;9.004;2022-08-01T04:46:19;18.30;99.90
10433;DHT22;5263;48.680;9.004;2022-08-01T04:48:45;18.00;99.90
10433;DHT22;5263;48.680;9.004;2022-08-01T04:51:13;18.10;99.90
10433;DHT22;5263;48.680;9.004;2022-08-01T04:53:41;17.90;99.90
10433;DHT22;5263;48.680;9.004;2022-08-01T04:56:07;17.90;99.90
10433;DHT22;5263;48.680;9.004;2022-08-01T04:58:32;18.10;99.90
10433;DHT22;5263;48.680;9.004;2022-08-01T05:00:58;18.10;99.90
10433;DHT22;5263;48.680;9.004;2022-08-01T05:03:24;18.00;99.90
10433;DHT22;5263;48.680;9.004;2022-08-01T05:05:49;18.20;99.90
10433;DHT22;5263;48.680;9.004;2022-08-01T05:08:15;18.40;99.90
10433;DHT22;5263;48.680;9.004;2022-08-01T05:10:42;18.60;99.90
10433;DHT22;5263;48.680;9.004;2022-08-01T05:13:08;18.80;99.90
10433;DHT22;5263;48.680;9.004;2022-08-01T05:15:35;18.90;99.90
10433;DHT22;5263;48.680;9.004;2022-08-01T05:18:04;19.00;99.90
10433;DHT22;5263;48.680;9.004;2022-08-01T05:20:30;19.20;99.90
10433;DHT22;5263;48.680;9.004;2022-08-01T05:22:56;19.30;99.90
10433;DHT22;5263;48.680;9.004;2022-08-01T05:25:22;19.20;99.90
10433;DHT22;5263;48.680;9.004;2022-08-01T05:27:49;19.30;99.90
10433;DHT22;5263;48.680;9.004;2022-08-01T05:30:14;19.40;99.90
10433;DHT22;5263;48.680;9.004;2022-08-01T05:32:40;19.40;99.90
10433;DHT22;5263;48.680;9.004;2022-08-01T05:35:07;19.60;99.90
10433;DHT22;5263;48.680;9.004;2022-08-01T05:37:33;19.60;99.90
10433;DHT22;5263;48.680;9.004;2022-08-01T05:39:59;19.60;99.90
10433;DHT22;5263;48.680;9.004;2022-08-01T05:42:25;19.60;99.90
10433;DHT22;5263;48.680;9.004;2022-08-01T05:44:50;19.70;99.90
10433;DHT22;5263;48.680;9.004;2022-08-01T05:47:17;19.80;99.90
10433;DHT22;5263;48.680;9.004;2022-08-01T05:49:43;19.80;99.90
10433;DHT22;5263;48.680;9.004;2022-08-01T05:52:09;19.90;99.90
10433;DHT22;5263;48.680;9.004;2022-08-01T05:54:35;20.10;99.90
10433;DHT22;5263;48.680;9.004;2022-08-01T05:57:00;20.30;99.90
10433;DHT22;5263;48.680;9.004;2022-08-01T05:59:28;20.30;99.90
10433;DHT22;5263;48.680;9.004;2022-08-01T06:01:54;20.40;99.90
10433;DHT22;5263;48.680;9.004;2022-08-01T06:04:19;20.40;99.90
10433;DHT22;5263;48.680;9.004;2022-08-01T06:06:45;20.40;99.90
10433;DHT22;5263;48.680;9.004;2022-08-01T06:09:11;20.40;99.90
10433;DHT22;5263;48.680;9.004;2022-08-01T06:11:36;20.40;99.90
10433;DHT22;5263;48.680;9.004;2022-08-01T06:14:02;20.40;99.90
10433;DHT22;5263;48.680;9.004;2022-08-01T06:16:27;20.50;99.90
10433;DHT22;5263;48.680;9.004;2022-08-01T06:18:53;20.70;99.90
10433;DHT22;5263;48.680;9.004;2022-08-01T06:21:19;20.80;99.90
10433;DHT22;5263;48.680;9.004;2022-08-01T06:23:44;20.90;99.90
10433;DHT22;5263;48.680;9.004;2022-08-01T06:26:10;21.00;99.90
10433;DHT22;5263;48.680;9.004;2022-08-01T06:28:36;21.20;99.90
10433;DHT22;5263;48.680;9.004;2022-08-01T06:31:02;21.30;99.90
10433;DHT22;5263;48.680;9.004;2022-08-01T06:33:28;21.50;99.90
10433;DHT22;5263;48.680;9.004;2022-08-01T06:35:54;21.50;99.90
10433;DHT22;5263;48.680;9.004;2022-08-01T06:38:19;21.60;99.90
10433;DHT22;5263;48.680;9.004;2022-08-01T06:40:45;21.70;99.90
10433;DHT22;5263;48.680;9.004;2022-08-01T06:43:11;21.70;99.90
10433;DHT22;5263;48.680;9.004;2022-08-01T06:45:38;21.70;99.90
10433;DHT22;5263;48.680;9.004;2022-08-01T06:48:03;21.80;99.90
10433;DHT22;5263;48.680;9.004;2022-08-01T06:50:30;21.90;99.90
10433;DHT22;5263;48.680;9.004;2022-08-01T06:52:56;22.00;99.90
10433;DHT22;5263;48.680;9.004;2022-08-01T06:55:21;22.10;99.90
10433;DHT22;5263;48.680;9.004;2022-08-01T06:57:49;22.30;99.90
10433;DHT22;5263;48.680;9.004;2022-08-01T07:00:16;22.30;99.90
10433;DHT22;5263;48.680;9.004;2022-08-01T07:02:44;22.40;99.90
10433;DHT22;5263;48.680;9.004;2022-08-01T07:05:10;22.50;99.90
10433;DHT22;5263;48.680;9.004;2022-08-01T07:07:36;22.60;99.90
10433;DHT22;5263;48.680;9.004;2022-08-01T07:10:02;22.60;99.90
10433;DHT22;5263;48.680;9.004;2022-08-01T07:12:28;22.50;99.90
10433;DHT22;5263;48.680;9.004;2022-08-01T07:14:54;22.60;99.90
10433;DHT22;5263;48.680;9.004;2022-08-01T07:17:19;22.60;99.90
10433;DHT22;5263;48.680;9.004;2022-08-01T07:19:46;22.60;99.90
10433;DHT22;5263;48.680;9.004;2022-08-01T07:22:11;22.70;99.90
10433;DHT22;5263;48.680;9.004;2022-08-01T07:24:39;22.80;99.90
10433;DHT22;5263;48.680;9.004;2022-08-01T07:27:04;22.70;99.90
10433;DHT22;5263;48.680;9.004;2022-08-01T07:29:30;22.80;99.90
10433;DHT22;5263;48.680;9.004;2022-08-01T07:31:57;22.80;99.90
10433;DHT22;5263;48.680;9.004;2022-08-01T07:34:23;22.80;99.90
10433;DHT22;5263;48.680;9.004;2022-08-01T07:36:50;22.80;99.90
10433;DHT22;5263;48.680;9.004;2022-08-01T07:39:16;22.80;99.90
10433;DHT22;5263;48.680;9.004;2022-08-01T07:41:41;23.00;99.90
10433;DHT22;5263;48.680;9.004;2022-08-01T07:44:07;23.00;99.90
10433;DHT22;5263;48.680;9.004;2022-08-01T07:46:33;23.10;99.90
10433;DHT22;5263;48.680;9.004;2022-08-01T07:48:58;23.10;99.90
10433;DHT22;5263;48.680;9.004;2022-08-01T07:51:24;23.10;99.90
10433;DHT22;5263;48.680;9.004;2022-08-01T07:53:49;23.10;99.90
10433;DHT22;5263;48.680;9.004;2022-08-01T07:56:15;23.30;99.90
10433;DHT22;5263;48.680;9.004;2022-08-01T07:58:41;23.30;99.90
10433;DHT22;5263;48.680;9.004;2022-08-01T08:01:06;23.30;99.90
10433;DHT22;5263;48.680;9.004;2022-08-01T08:03:32;23.40;99.90
10433;DHT22;5263;48.680;9.004;2022-08-01T08:05:57;23.40;99.90
10433;DHT22;5263;48.680;9.004;2022-08-01T08:08:23;23.60;99.90
10433;DHT22;5263;48.680;9.004;2022-08-01T08:10:49;23.70;99.90
10433;DHT22;5263;48.680;9.004;2022-08-01T08:13:15;23.60;99.90
10433;DHT22;5263;48.680;9.004;2022-08-01T08:15:40;23.60;99.90
10433;DHT22;5263;48.680;9.004;2022-08-01T08:18:06;23.70;99.90
10433;DHT22;5263;48.680;9.004;2022-08-01T08:20:32;23.70;99.90
10433;DHT22;5263;48.680;9.004;2022-08-01T08:22:57;23.90;99.90
10433;DHT22;5263;48.680;9.004;2022-08-01T08:25:25;23.80;99.90
10433;DHT22;5263;48.680;9.004;2022-08-01T08:27:51;23.90;99.90
10433;DHT22;5263;48.680;9.004;2022-08-01T08:30:17;24.00;99.90
10433;DHT22;5263;48.680;9.004;2022-08-01T08:32:43;24.40;99.90
10433;DHT22;5263;48.680;9.004;2022-08-01T08:35:09;24.50;99.90
10433;DHT22;5263;48.680;9.004;2022-08-01T08:37:35;24.40;99.90
10433;DHT22;5263;48.680;9.004;2022-08-01T08:40:05;24.40;99.90
10433;DHT22;5263;48.680;9.004;2022-08-01T08:42:31;24.20;99.90
10433;DHT22;5263;48.680;9.004;2022-08-01T08:44:57;24.40;99.90
10433;DHT22;5263;48.680;9.004;2022-08-01T08:47:24;24.70;99.60
10433;DHT22;5263;48.680;9.004;2022-08-01T08:49:52;25.00;99.00
10433;DHT22;5263;48.680;9.004;2022-08-01T08:52:22;25.10;98.20
10433;DHT22;5263;48.680;9.004;2022-08-01T08:54:49;25.30;98.30
10433;DHT22;5263;48.680;9.004;2022-08-01T08:57:15;25.60;97.20
10433;DHT22;5263;48.680;9.004;2022-08-01T08:59:44;25.40;96.60
10433;DHT22;5263;48.680;9.004;2022-08-01T09:02:10;25.40;96.90
10433;DHT22;5263;48.680;9.004;2022-08-01T09:04:38;25.20;96.40
10433;DHT22;5263;48.680;9.004;2022-08-01T09:07:05;25.20;97.00
10433;DHT22;5263;48.680;9.004;2022-08-01T09:09:32;25.30;97.50
10433;DHT22;5263;48.680;9.004;2022-08-01T09:11:58;25.50;96.80
10433;DHT22;5263;48.680;9.004;2022-08-01T09:14:25;25.70;96.30
10433;DHT22;5263;48.680;9.004;2022-08-01T09:17:08;25.40;95.40
10433;DHT22;5263;48.680;9.004;2022-08-01T09:19:46;25.40;95.50
10433;DHT22;5263;48.680;9.004;2022-08-01T09:22:18;25.60;96.40
10433;DHT22;5263;48.680;9.004;2022-08-01T09:25:08;25.80;94.70
10433;DHT22;5263;48.680;9.004;2022-08-01T09:27:35;26.00;95.30
10433;DHT22;5263;48.680;9.004;2022-08-01T09:30:10;26.00;94.20
10433;DHT22;5263;48.680;9.004;2022-08-01T09:32:52;26.10;94.70
10433;DHT22;5263;48.680;9.004;2022-08-01T09:35:34;26.50;95.00
10433;DHT22;5263;48.680;9.004;2022-08-01T09:38:19;26.70;94.60
10433;DHT22;5263;48.680;9.004;2022-08-01T09:40:47;26.60;94.10
10433;DHT22;5263;48.680;9.004;2022-08-01T09:43:13;26.60;93.80
10433;DHT22;5263;48.680;9.004;2022-08-01T09:45:38;26.70;93.30
10433;DHT22;5263;48.680;9.004;2022-08-01T09:48:11;26.70;93.60
10433;DHT22;5263;48.680;9.004;2022-08-01T09:50:46;26.70;93.50
10433;DHT22;5263;48.680;9.004;2022-08-01T09:53:13;26.80;93.30
10433;DHT22;5263;48.680;9.004;2022-08-01T09:55:40;26.70;93.50
10433;DHT22;5263;48.680;9.004;2022-08-01T09:58:07;26.60;94.30
10433;DHT22;5263;48.680;9.004;2022-08-01T10:00:34;26.50;94.20
10433;DHT22;5263;48.680;9.004;2022-08-01T10:03:18;26.20;93.80
10433;DHT22;5263;48.680;9.004;2022-08-01T10:05:43;26.30;93.50
10433;DHT22;5263;48.680;9.004;2022-08-01T10:08:09;26.80;93.10
10433;DHT22;5263;48.680;9.004;2022-08-01T10:10:35;27.00;92.50
10433;DHT22;5263;48.680;9.004;2022-08-01T10:13:01;27.60;93.10
10433;DHT22;5263;48.680;9.004;2022-08-01T10:15:27;28.00;90.20
10433;DHT22;5263;48.680;9.004;2022-08-01T10:17:56;28.10;90.10
10433;DHT22;5263;48.680;9.004;2022-08-01T10:20:30;27.90;89.20
10433;DHT22;5263;48.680;9.004;2022-08-01T10:23:02;27.50;89.20
10433;DHT22;5263;48.680;9.004;2022-08-01T10:25:31;27.50;89.70
10433;DHT22;5263;48.680;9.004;2022-08-01T10:27:59;27.90;90.70
10433;DHT22;5263;48.680;9.004;2022-08-01T10:30:27;29.70;86.10
10433;DHT22;5263;48.680;9.004;2022-08-01T10:32:54;30.90;80.10
10433;DHT22;5263;48.680;9.004;2022-08-01T10:35:21;30.90;78.40
10433;DHT22;5263;48.680;9.004;2022-08-01T10:37:47;30.30;78.60
10433;DHT22;5263;48.680;9.004;2022-08-01T10:40:14;29.60;77.60
10433;DHT22;5263;48.680;9.004;2022-08-01T10:42:42;28.20;84.00
10433;DHT22;5263;48.680;9.004;2022-08-01T10:45:13;28.20;85.10
10433;DHT22;5263;48.680;9.004;2022-08-01T10:53:06;30.80;73.20
10433;DHT22;5263;48.680;9.004;2022-08-01T10:58:19;29.10;77.60
10433;DHT22;5263;48.680;9.004;2022-08-01T11:00:45;28.40;80.10
10433;DHT22;5263;48.680;9.004;2022-08-01T11:03:11;28.00;81.80
10433;DHT22;5263;48.680;9.004;2022-08-01T11:05:36;27.40;82.50
10433;DHT22;5263;48.680;9.004;2022-08-01T11:08:23;27.00;84.00
10433;DHT22;5263;48.680;9.004;2022-08-01T11:11:02;27.00;85.90
10433;DHT22;5263;48.680;9.004;2022-08-01T11:14:08;27.10;87.10
10433;DHT22;5263;48.680;9.004;2022-08-01T11:16:36;27.80;84.40
10433;DHT22;5263;48.680;9.004;2022-08-01T11:19:03;28.20;82.60
10433;DHT22;5263;48.680;9.004;2022-08-01T11:27:17;29.70;79.00
10433;DHT22;5263;48.680;9.004;2022-08-01T11:29:43;32.60;70.70
10433;DHT22;5263;48.680;9.004;2022-08-01T11:32:26;35.80;60.20
10433;DHT22;5263;48.680;9.004;2022-08-01T11:34:53;35.10;57.10
10433;DHT22;5263;48.680;9.004;2022-08-01T11:37:28;33.20;58.00
10433;DHT22;5263;48.680;9.004;2022-08-01T11:40:23;31.90;62.40
10433;DHT22;5263;48.680;9.004;2022-08-01T11:45:51;29.70;68.70
10433;DHT22;5263;48.680;9.004;2022-08-01T11:48:19;29.20;70.20
10433;DHT22;5263;48.680;9.004;2022-08-01T11:50:45;29.40;69.70
10433;DHT22;5263;48.680;9.004;2022-08-01T11:53:11;29.70;68.40
10433;DHT22;5263;48.680;9.004;2022-08-01T11:55:51;29.20;69.90
10433;DHT22;5263;48.680;9.004;2022-08-01T11:58:25;28.50;71.50
10433;DHT22;5263;48.680;9.004;2022-08-01T12:00:55;27.90;74.30
10433;DHT22;5263;48.680;9.004;2022-08-01T12:03:31;27.60;73.70
10433;DHT22;5263;48.680;9.004;2022-08-01T12:05:58;27.10;76.50
10433;DHT22;5263;48.680;9.004;2022-08-01T12:08:33;27.00;79.80
10433;DHT22;5263;48.680;9.004;2022-08-01T12:11:03;26.90;76.30
10433;DHT22;5263;48.680;9.004;2022-08-01T12:13:42;27.60;77.10
10433;DHT22;5263;48.680;9.004;2022-08-01T12:16:09;31.90;68.40
10433;DHT22;5263;48.680;9.004;2022-08-01T12:18:42;35.60;57.10
10433;DHT22;5263;48.680;9.004;2022-08-01T12:21:08;36.70;50.90
10433;DHT22;5263;48.680;9.004;2022-08-01T12:23:34;38.50;48.10
10433;DHT22;5263;48.680;9.004;2022-08-01T12:25:59;40.90;41.90
10433;DHT22;5263;48.680;9.004;2022-08-01T12:28:27;40.50;39.50
10433;DHT22;5263;48.680;9.004;2022-08-01T12:30:52;38.90;40.10
10433;DHT22;5263;48.680;9.004;2022-08-01T12:33:19;37.30;42.60
10433;DHT22;5263;48.680;9.004;2022-08-01T12:35:47;35.30;46.00
10433;DHT22;5263;48.680;9.004;2022-08-01T12:38:21;33.50;49.30
10433;DHT22;5263;48.680;9.004;2022-08-01T12:40:52;31.50;53.90
10433;DHT22;5263;48.680;9.004;2022-08-01T12:43:19;30.60;56.50
10433;DHT22;5263;48.680;9.004;2022-08-01T12:45:47;29.80;59.20
10433;DHT22;5263;48.680;9.004;2022-08-01T12:48:15;29.40;61.10
10433;DHT22;5263;48.680;9.004;2022-08-01T12:50:51;29.70;63.20
10433;DHT22;5263;48.680;9.004;2022-08-01T12:53:22;33.30;55.90
10433;DHT22;5263;48.680;9.004;2022-08-01T12:55:49;36.30;49.10
10433;DHT22;5263;48.680;9.004;2022-08-01T12:58:15;39.10;43.90
10433;DHT22;5263;48.680;9.004;2022-08-01T13:00:44;40.80;41.50
10433;DHT22;5263;48.680;9.004;2022-08-01T13:03:13;38.90;39.00
10433;DHT22;5263;48.680;9.004;2022-08-01T13:05:53;36.70;40.40
10433;DHT22;5263;48.680;9.004;2022-08-01T13:08:22;34.40;45.30
10433;DHT22;5263;48.680;9.004;2022-08-01T13:10:49;31.90;49.10
10433;DHT22;5263;48.680;9.004;2022-08-01T13:13:17;32.00;53.40
10433;DHT22;5263;48.680;9.004;2022-08-01T13:15:44;31.40;54.00
10433;DHT22;5263;48.680;9.004;2022-08-01T13:20:50;30.20;56.30
10433;DHT22;5263;48.680;9.004;2022-08-01T13:23:19;29.90;56.60
10433;DHT22;5263;48.680;9.004;2022-08-01T13:25:52;29.50;56.90
10433;DHT22;5263;48.680;9.004;2022-08-01T13:28:23;29.30;58.40
10433;DHT22;5263;48.680;9.004;2022-08-01T13:30:59;31.20;57.20
10433;DHT22;5263;48.680;9.004;2022-08-01T13:33:27;34.20;52.30
10433;DHT22;5263;48.680;9.004;2022-08-01T13:35:55;37.60;46.00
10433;DHT22;5263;48.680;9.004;2022-08-01T13:38:22;39.40;42.60
10433;DHT22;5263;48.680;9.004;2022-08-01T13:41:07;40.80;40.10
10433;DHT22;5263;48.680;9.004;2022-08-01T13:43:32;40.70;38.40
10433;DHT22;5263;48.680;9.004;2022-08-01T13:45:59;40.30;37.60
10433;DHT22;5263;48.680;9.004;2022-08-01T13:48:25;38.50;39.00
10433;DHT22;5263;48.680;9.004;2022-08-01T13:50:50;36.90;41.60
10433;DHT22;5263;48.680;9.004;2022-08-01T13:53:16;35.20;44.70
10433;DHT22;5263;48.680;9.004;2022-08-01T13:55:43;33.90;47.20
10433;DHT22;5263;48.680;9.004;2022-08-01T13:58:08;32.70;50.50
10433;DHT22;5263;48.680;9.004;2022-08-01T14:00:34;32.20;51.90
10433;DHT22;5263;48.680;9.004;2022-08-01T14:03:00;32.30;53.60
10433;DHT22;5263;48.680;9.004;2022-08-01T14:05:25;32.10;53.70
10433;DHT22;5263;48.680;9.004;2022-08-01T14:07:51;31.60;53.10
10433;DHT22;5263;48.680;9.004;2022-08-01T14:10:17;30.60;55.00
10433;DHT22;5263;48.680;9.004;2022-08-01T14:12:42;29.70;57.40
10433;DHT22;5263;48.680;9.004;2022-08-01T14:15:08;29.70;58.00
10433;DHT22;5263;48.680;9.004;2022-08-01T14:17:34;30.50;57.20
10433;DHT22;5263;48.680;9.004;2022-08-01T14:20:00;31.90;53.90
10433;DHT22;5263;48.680;9.004;2022-08-01T14:22:26;32.50;53.20
10433;DHT22;5263;48.680;9.004;2022-08-01T14:24:51;33.90;51.10
10433;DHT22;5263;48.680;9.004;2022-08-01T14:27:17;34.50;49.50
10433;DHT22;5263;48.680;9.004;2022-08-01T14:29:42;33.30;49.50
10433;DHT22;5263;48.680;9.004;2022-08-01T14:32:08;32.70;51.60
10433;DHT22;5263;48.680;9.004;2022-08-01T14:34:34;32.20;53.10
10433;DHT22;5263;48.680;9.004;2022-08-01T14:36:59;33.70;51.60
10433;DHT22;5263;48.680;9.004;2022-08-01T14:39:27;34.20;50.50
10433;DHT22;5263;48.680;9.004;2022-08-01T14:41:53;34.60;48.50
10433;DHT22;5263;48.680;9.004;2022-08-01T14:44:19;34.70;48.00
10433;DHT22;5263;48.680;9.004;2022-08-01T14:46:44;32.90;50.10
10433;DHT22;5263;48.680;9.004;2022-08-01T14:49:14;31.80;52.90
10433;DHT22;5263;48.680;9.004;2022-08-01T14:51:39;31.50;54.80
10433;DHT22;5263;48.680;9.004;2022-08-01T14:54:05;31.50;55.30
10433;DHT22;5263;48.680;9.004;2022-08-01T14:56:31;30.80;56.50
10433;DHT22;5263;48.680;9.004;2022-08-01T14:58:57;30.60;57.00
10433;DHT22;5263;48.680;9.004;2022-08-01T15:01:24;30.50;57.90
10433;DHT22;5263;48.680;9.004;2022-08-01T15:03:49;30.50;57.50
10433;DHT22;5263;48.680;9.004;2022-08-01T15:06:16;30.10;57.60
10433;DHT22;5263;48.680;9.004;2022-08-01T15:08:43;30.00;58.30
10433;DHT22;5263;48.680;9.004;2022-08-01T15:11:08;30.00;59.70
10433;DHT22;5263;48.680;9.004;2022-08-01T15:13:34;30.30;58.30
10433;DHT22;5263;48.680;9.004;2022-08-01T15:16:00;30.20;58.50
10433;DHT22;5263;48.680;9.004;2022-08-01T15:18:26;29.80;59.10
10433;DHT22;5263;48.680;9.004;2022-08-01T15:20:52;29.70;59.90
10433;DHT22;5263;48.680;9.004;2022-08-01T15:23:18;29.30;60.30
10433;DHT22;5263;48.680;9.004;2022-08-01T15:25:44;29.10;60.90
10433;DHT22;5263;48.680;9.004;2022-08-01T15:28:10;29.20;62.20
10433;DHT22;5263;48.680;9.004;2022-08-01T15:30:36;29.30;62.00
10433;DHT22;5263;48.680;9.004;2022-08-01T15:33:01;29.30;61.90
10433;DHT22;5263;48.680;9.004;2022-08-01T15:35:27;29.10;61.30
10433;DHT22;5263;48.680;9.004;2022-08-01T15:37:53;29.00;62.10
10433;DHT22;5263;48.680;9.004;2022-08-01T15:40:19;28.90;62.60
10433;DHT22;5263;48.680;9.004;2022-08-01T15:42:44;28.70;62.50
10433;DHT22;5263;48.680;9.004;2022-08-01T15:45:10;28.70;63.80
10433;DHT22;5263;48.680;9.004;2022-08-01T15:47:38;28.70;62.70
10433;DHT22;5263;48.680;9.004;2022-08-01T15:50:04;28.60;62.40
10433;DHT22;5263;48.680;9.004;2022-08-01T15:52:30;28.30;63.50
10433;DHT22;5263;48.680;9.004;2022-08-01T15:54:55;28.30;64.10
10433;DHT22;5263;48.680;9.004;2022-08-01T15:57:21;28.10;64.50
10433;DHT22;5263;48.680;9.004;2022-08-01T15:59:47;28.10;65.20
10433;DHT22;5263;48.680;9.004;2022-08-01T16:02:12;28.00;64.40
10433;DHT22;5263;48.680;9.004;2022-08-01T16:04:39;27.80;65.00
10433;DHT22;5263;48.680;9.004;2022-08-01T16:07:05;27.70;65.80
10433;DHT22;5263;48.680;9.004;2022-08-01T16:09:30;27.50;66.00
10433;DHT22;5263;48.680;9.004;2022-08-01T16:11:56;27.20;67.00
10433;DHT22;5263;48.680;9.004;2022-08-01T16:14:22;27.00;67.50
10433;DHT22;5263;48.680;9.004;2022-08-01T16:16:48;26.80;68.40
10433;DHT22;5263;48.680;9.004;2022-08-01T16:19:13;26.80;68.60